createdAt,value
2019-03-05T00:01:48.231Z,96500.61
2019-03-05T00:04:18.871Z,96517.31
2019-03-05T00:06:50.487Z,96511.39
2019-03-05T00:09:22.583Z,96528.62
2019-03-05T00:11:53.648Z,96532.94
2019-03-05T00:14:25.502Z,96529.43
2019-03-05T00:16:56.795Z,96533.75
2019-03-05T00:19:27.572Z,96531.59
2019-03-05T00:21:57.955Z,96538.33
2019-03-05T00:25:00.630Z,96530.52
2019-03-05T00:27:36.187Z,96531.87
2019-03-05T00:30:31.437Z,96531.33
2019-03-05T00:33:24.260Z,96526.76
2019-03-05T00:36:01.563Z,96537.81
2019-03-05T00:38:50.992Z,96537.81
2019-03-05T00:41:44.496Z,96539.70
2019-03-05T00:45:11.502Z,96537.27
2019-03-05T00:48:12.486Z,96532.95
2019-03-05T00:51:03.603Z,96542.38
2019-03-05T00:54:22.891Z,96536.74
2019-03-05T00:57:05.700Z,96542.14
2019-03-05T01:00:14.890Z,96547.78
2019-03-05T01:03:17.293Z,96563.67
2019-03-05T01:06:20.256Z,96563.39
2019-03-05T01:08:50.998Z,96576.08
2019-03-05T01:11:22.678Z,96576.08
2019-03-05T01:13:54.854Z,96573.13
2019-03-05T01:16:28.932Z,96577.70
2019-03-05T01:18:59.705Z,96571.50
2019-03-05T01:21:32.983Z,96592.02
2019-03-05T01:24:03.711Z,96615.47
2019-03-05T01:26:34.401Z,96650.23
2019-03-05T01:29:05.519Z,96620.30
2019-03-05T01:31:47.472Z,96646.72
2019-03-05T01:34:27.506Z,96649.91
2019-03-05T01:36:59.934Z,96679.26
2019-03-05T01:39:44.943Z,96670.86
2019-03-05T01:42:21.109Z,96708.20
2019-03-05T01:44:51.664Z,96683.84
2019-03-05T01:47:22.757Z,96705.02
2019-03-05T01:49:53.394Z,96701.48
2019-03-05T01:52:24.868Z,96766.73
2019-03-05T01:54:55.484Z,96718.52
2019-03-05T01:57:25.872Z,96777.52
2019-03-05T01:59:56.407Z,96730.86
2019-03-05T02:02:27.547Z,96756.31
2019-03-05T02:04:58.409Z,96768.05
2019-03-05T02:07:29.521Z,96775.44
2019-03-05T02:10:01.417Z,96763.05
2019-03-05T02:12:32.040Z,96754.66
2019-03-05T02:15:02.576Z,96749.54
2019-03-05T02:17:34.203Z,96743.59
2019-03-05T02:20:05.991Z,96762.37
2019-03-05T02:22:45.991Z,96764.27
2019-03-05T02:25:39.829Z,96747.06
2019-03-05T02:28:54.800Z,96756.73
2019-03-05T02:31:42.587Z,96781.73
2019-03-05T02:34:42.911Z,96775.59
2019-03-05T02:37:42.320Z,96759.19
2019-03-05T02:40:23.777Z,96755.95
2019-03-05T02:43:10.664Z,96760.77
2019-03-05T02:46:10.807Z,96782.02
2019-03-05T02:49:37.413Z,96783.66
2019-03-05T02:52:31.762Z,96787.95
2019-03-05T02:55:29.530Z,96791.19
2019-03-05T02:57:58.468Z,96796.51
2019-03-05T03:00:47.303Z,96804.31
2019-03-05T03:03:25.214Z,96804.84
2019-03-05T03:06:14.845Z,96818.59
2019-03-05T03:08:45.537Z,96841.93
2019-03-05T03:11:16.119Z,96828.23
2019-03-05T03:13:46.946Z,96857.81
2019-03-05T03:16:18.370Z,96855.13
2019-03-05T03:18:48.733Z,96873.41
2019-03-05T03:21:19.403Z,96870.23
2019-03-05T03:23:49.818Z,96872.42
2019-03-05T03:26:20.360Z,96877.83
2019-03-05T03:28:51.384Z,96885.13
2019-03-05T03:31:22.111Z,96885.95
2019-03-05T03:33:52.659Z,96888.93
2019-03-05T03:36:23.143Z,96891.41
2019-03-05T03:38:55.319Z,96901.61
2019-03-05T03:41:26.093Z,96899.73
2019-03-05T03:43:57.286Z,96897.05
2019-03-05T03:46:27.796Z,96902.42
2019-03-05T03:48:59.378Z,96887.06
2019-03-05T03:51:30.278Z,96900.53
2019-03-05T03:54:00.817Z,96893.78
2019-03-05T03:56:31.276Z,96906.63
2019-03-05T03:59:01.764Z,96902.56
2019-03-05T04:01:32.712Z,96900.94
2019-03-05T04:04:03.605Z,96899.83
2019-03-05T04:06:37.276Z,96900.61
2019-03-05T04:09:11.968Z,96902.16
2019-03-05T04:11:43.038Z,96899.99
2019-03-05T04:14:13.690Z,96903.44
2019-03-05T04:16:44.126Z,96914.70
2019-03-05T04:19:16.914Z,96918.15
2019-03-05T04:21:47.615Z,96934.23
2019-03-05T04:24:20.511Z,96933.45
2019-03-05T04:26:51.048Z,96937.13
2019-03-05T04:29:22.470Z,96947.30
2019-03-05T04:31:53.185Z,96942.66
2019-03-05T04:34:24.731Z,96964.93
2019-03-05T04:36:55.057Z,96945.80
2019-03-05T04:39:25.602Z,96953.59
2019-03-05T04:41:57.507Z,96949.49
2019-03-05T04:44:37.747Z,96954.59
2019-03-05T04:47:09.689Z,96956.69
2019-03-05T04:49:45.198Z,96954.79
2019-03-05T04:52:18.096Z,96964.11
2019-03-05T04:54:49.619Z,96974.52
2019-03-05T04:57:20.172Z,96958.63
2019-03-05T04:59:50.663Z,96956.95
2019-03-05T05:02:21.030Z,96955.80
2019-03-05T05:04:51.352Z,96960.27
2019-03-05T05:07:23.344Z,96965.78
2019-03-05T05:09:53.669Z,96964.02
2019-03-05T05:12:24.224Z,96984.94
2019-03-05T05:14:54.773Z,96969.45
2019-03-05T05:17:25.158Z,96963.52
2019-03-05T05:19:55.584Z,96980.09
2019-03-05T05:22:26.542Z,96969.33
2019-03-05T05:24:56.927Z,96970.33
2019-03-05T05:27:29.283Z,96976.24
2019-03-05T05:29:59.959Z,96994.20
2019-03-05T05:32:30.492Z,96979.45
2019-03-05T05:35:01.308Z,96983.42
2019-03-05T05:37:32.354Z,96973.22
2019-03-05T05:40:40.630Z,96967.08
2019-03-05T05:43:13.953Z,96993.91
2019-03-05T05:45:46.715Z,96989.36
2019-03-05T05:48:20.752Z,96978.11
2019-03-05T05:50:51.548Z,96981.88
2019-03-05T05:53:22.234Z,96987.81
2019-03-05T05:55:52.751Z,97004.77
2019-03-05T05:58:25.508Z,96995.72
2019-03-05T06:00:59.407Z,96999.75
2019-03-05T06:03:30.121Z,97007.57
2019-03-05T06:06:01.083Z,97012.12
2019-03-05T06:08:31.780Z,96997.41
2019-03-05T06:11:02.802Z,97013.80
2019-03-05T06:13:33.592Z,97028.31
2019-03-05T06:16:04.324Z,97018.35
2019-03-05T06:18:35.097Z,97037.36
2019-03-05T06:21:06.602Z,97030.65
2019-03-05T06:23:37.501Z,97014.80
2019-03-05T06:26:08.979Z,97023.98
2019-03-05T06:28:40.308Z,97015.37
2019-03-05T06:31:10.711Z,97024.19
2019-03-05T06:33:42.343Z,97042.50
2019-03-05T06:36:12.704Z,97036.66
2019-03-05T06:38:43.196Z,97045.23
2019-03-05T06:41:13.875Z,97036.45
2019-03-05T06:43:44.361Z,97030.38
2019-03-05T06:46:14.985Z,97044.06
2019-03-05T06:48:45.570Z,97039.77
2019-03-05T06:51:16.111Z,97056.74
2019-03-05T06:53:46.812Z,97042.29
2019-03-05T06:56:17.522Z,97066.36
2019-03-05T06:58:47.971Z,97052.19
2019-03-05T07:01:19.479Z,97068.95
2019-03-05T07:03:50.400Z,97054.81
2019-03-05T07:06:58.784Z,97064.67
2019-03-05T07:09:45.685Z,97076.21
2019-03-05T07:12:59.092Z,97073.64
2019-03-05T07:15:53.713Z,97067.09
2019-03-05T07:18:34.074Z,97084.22
2019-03-05T07:21:47.437Z,97055.33
2019-03-05T07:24:45.619Z,97074.33
2019-03-05T07:27:21.889Z,97086.00
2019-03-05T07:29:52.358Z,97091.57
2019-03-05T07:32:22.717Z,97081.97
2019-03-05T07:34:53.264Z,97086.34
2019-03-05T07:37:23.591Z,97112.28
2019-03-05T07:39:53.997Z,97097.08
2019-03-05T07:42:24.435Z,97073.44
2019-03-05T07:44:54.889Z,97086.85
2019-03-05T07:47:28.085Z,97110.11
2019-03-05T07:49:58.497Z,97075.86
2019-03-05T07:52:28.813Z,97063.06
2019-03-05T07:54:59.178Z,97136.16
2019-03-05T07:57:29.563Z,97123.69
2019-03-05T08:00:00.191Z,97085.73
2019-03-05T08:02:30.891Z,97065.55
2019-03-05T08:05:01.745Z,97082.80
2019-03-05T08:07:32.307Z,97108.66
2019-03-05T08:10:10.374Z,97070.48
2019-03-05T08:13:22.490Z,97073.10
2019-03-05T08:16:24.275Z,97101.81
2019-03-05T08:18:54.866Z,97083.66
2019-03-05T08:21:25.320Z,97090.44
2019-03-05T08:23:56.185Z,97067.05
2019-03-05T08:26:26.568Z,97099.66
2019-03-05T08:28:57.062Z,97082.50
2019-03-05T08:31:28.397Z,97093.48
2019-03-05T08:33:58.759Z,97069.26
2019-03-05T08:36:29.195Z,97122.50
2019-03-05T08:38:59.634Z,97090.44
2019-03-05T08:41:30.527Z,97102.36
2019-03-05T08:44:01.535Z,97099.39
2019-03-05T08:46:32.084Z,97111.09
2019-03-05T08:49:02.599Z,97100.47
2019-03-05T08:51:33.066Z,97078.56
2019-03-05T08:54:03.739Z,97086.86
2019-03-05T08:56:34.310Z,97116.14
2019-03-05T08:59:05.270Z,97060.66
2019-03-05T09:01:35.784Z,97103.12
2019-03-05T09:04:06.113Z,97141.86
2019-03-05T09:06:36.588Z,97132.41
2019-03-05T09:09:09.930Z,97130.00
2019-03-05T09:11:42.004Z,97109.50
2019-03-05T09:14:12.379Z,97114.60
2019-03-05T09:16:42.749Z,96985.22
2019-03-05T09:19:13.087Z,97166.43
2019-03-05T09:21:43.587Z,97112.58
2019-03-05T09:24:13.989Z,97095.40
2019-03-05T09:26:51.304Z,97121.58
2019-03-05T09:29:16.471Z,97140.03
2019-03-05T09:31:46.823Z,97087.54
2019-03-05T09:34:17.203Z,97150.26
2019-03-05T09:36:51.255Z,97135.70
2019-03-05T09:39:20.000Z,97112.12
2019-03-05T09:41:50.405Z,97129.86
2019-03-05T09:44:20.819Z,97117.05
2019-03-05T09:46:51.381Z,97140.34
2019-03-05T09:49:22.344Z,97145.21
2019-03-05T09:51:52.691Z,97133.34
2019-03-05T09:54:23.244Z,97119.09
2019-03-05T09:56:53.775Z,97115.69
2019-03-05T09:59:24.695Z,97122.46
2019-03-05T10:01:56.246Z,97125.63
2019-03-05T10:04:26.898Z,97147.69
2019-03-05T10:06:57.472Z,97160.09
2019-03-05T10:09:29.451Z,97155.03
2019-03-05T10:12:00.572Z,97139.77
2019-03-05T10:14:31.102Z,97200.39
2019-03-05T10:17:02.221Z,97140.70
2019-03-05T10:19:32.927Z,97145.25
2019-03-05T10:22:05.491Z,97160.09
2019-03-05T10:24:36.333Z,97161.78
2019-03-05T10:27:07.162Z,97215.36
2019-03-05T10:29:38.639Z,97177.61
2019-03-05T10:32:09.379Z,97165.92
2019-03-05T10:34:40.580Z,97146.68
2019-03-05T10:37:16.930Z,97169.85
2019-03-05T10:39:43.322Z,97161.08
2019-03-05T10:42:13.855Z,97142.33
2019-03-05T10:44:44.639Z,97161.89
2019-03-05T10:47:15.137Z,97179.70
2019-03-05T10:49:45.688Z,97169.36
2019-03-05T10:52:17.127Z,97179.97
2019-03-05T10:54:47.702Z,97167.82
2019-03-05T10:57:18.724Z,97160.27
2019-03-05T10:59:50.290Z,97174.23
2019-03-05T11:02:21.537Z,97200.59
2019-03-05T11:04:52.507Z,97170.56
2019-03-05T11:07:23.261Z,97183.56
2019-03-05T11:09:55.177Z,97179.88
2019-03-05T11:12:26.662Z,97207.82
2019-03-05T11:14:57.151Z,97178.73
2019-03-05T11:17:27.951Z,97161.61
2019-03-05T11:19:58.392Z,97174.52
2019-03-05T11:22:28.760Z,97181.25
2019-03-05T11:24:59.314Z,97170.45
2019-03-05T11:27:29.760Z,97182.68
2019-03-05T11:30:00.649Z,97177.95
2019-03-05T11:32:31.237Z,97199.02
2019-03-05T11:35:03.106Z,97192.22
2019-03-05T11:37:33.743Z,97190.27
2019-03-05T11:40:04.270Z,97192.12
2019-03-05T11:42:34.949Z,97176.21
2019-03-05T11:45:10.648Z,97232.55
2019-03-05T11:47:40.315Z,97168.36
2019-03-05T11:50:11.373Z,97191.11
2019-03-05T11:52:42.148Z,97169.89
2019-03-05T11:55:14.580Z,97175.61
2019-03-05T11:57:45.195Z,97204.77
2019-03-05T12:00:20.525Z,97192.26
2019-03-05T12:02:51.371Z,97187.59
2019-03-05T12:05:21.913Z,97184.78
2019-03-05T12:07:55.199Z,97180.13
2019-03-05T12:10:26.124Z,97181.11
2019-03-05T12:12:58.112Z,97150.61
2019-03-05T12:15:29.055Z,97161.63
2019-03-05T12:17:59.538Z,97168.16
2019-03-05T12:20:29.983Z,97148.66
2019-03-05T12:23:02.300Z,97173.06
2019-03-05T12:25:36.087Z,97155.34
2019-03-05T12:28:10.240Z,97176.00
2019-03-05T12:30:38.776Z,97161.41
2019-03-05T12:33:09.340Z,97172.98
2019-03-05T12:35:40.053Z,97157.74
2019-03-05T12:38:10.940Z,97141.77
2019-03-05T12:40:41.566Z,97149.27
2019-03-05T12:43:12.273Z,97156.25
2019-03-05T12:45:42.777Z,97145.19
2019-03-05T12:48:13.256Z,97129.38
2019-03-05T12:50:44.860Z,97137.84
2019-03-05T12:53:16.120Z,97149.20
2019-03-05T12:55:46.939Z,97155.72
2019-03-05T12:58:17.293Z,97142.71
2019-03-05T13:00:48.989Z,97158.95
2019-03-05T13:03:19.679Z,97176.83
2019-03-05T13:05:50.322Z,97167.32
2019-03-05T13:08:20.872Z,97170.75
2019-03-05T13:10:51.631Z,97170.75
2019-03-05T13:13:22.630Z,97188.15
2019-03-05T13:15:56.497Z,97169.16
2019-03-05T13:18:26.741Z,97183.80
2019-03-05T13:20:57.634Z,97154.37
2019-03-05T13:23:28.073Z,97154.37
2019-03-05T13:25:58.641Z,97152.19
2019-03-05T13:28:29.052Z,97160.86
2019-03-05T13:31:00.424Z,97164.08
2019-03-05T13:33:33.521Z,97166.02
2019-03-05T13:36:05.127Z,97162.78
2019-03-05T13:38:37.463Z,97207.41
2019-03-05T13:41:07.946Z,97188.09
2019-03-05T13:43:38.389Z,97173.55
2019-03-05T13:46:08.963Z,97164.41
2019-03-05T13:49:19.395Z,97164.41
2019-03-05T13:52:16.312Z,97166.50
2019-03-05T13:55:14.936Z,97176.09
2019-03-05T13:58:31.655Z,97191.98
2019-03-05T14:01:02.956Z,97183.06
2019-03-05T14:03:45.417Z,97210.76
2019-03-05T14:06:55.972Z,97220.98
2019-03-05T14:09:24.787Z,97197.91
2019-03-05T14:11:55.879Z,97229.52
2019-03-05T14:14:34.517Z,97251.35
2019-03-05T14:17:27.194Z,97209.78
2019-03-05T14:19:57.579Z,97203.13
2019-03-05T14:22:28.359Z,97234.39
2019-03-05T14:25:02.395Z,97314.33
2019-03-05T14:27:31.289Z,97388.84
2019-03-05T14:30:03.074Z,97319.38
2019-03-05T14:32:35.870Z,97375.42
2019-03-05T14:35:11.063Z,97353.61
2019-03-05T14:37:41.927Z,97336.56
2019-03-05T14:40:24.181Z,97302.98
2019-03-05T14:42:49.067Z,97288.11
2019-03-05T14:45:22.381Z,97306.53
2019-03-05T14:47:54.208Z,97292.48
2019-03-05T14:50:24.969Z,97290.33
2019-03-05T14:52:55.728Z,97288.73
2019-03-05T14:55:27.625Z,97299.01
2019-03-05T14:57:58.251Z,97292.28
2019-03-05T15:00:29.198Z,97292.31
2019-03-05T15:02:59.787Z,97272.53
2019-03-05T15:05:30.400Z,97255.02
2019-03-05T15:08:00.977Z,97260.91
2019-03-05T15:10:32.224Z,97258.66
2019-03-05T15:13:15.400Z,97249.14
2019-03-05T15:15:36.195Z,97240.91
2019-03-05T15:18:06.700Z,97240.25
2019-03-05T15:20:37.251Z,97240.99
2019-03-05T15:23:07.575Z,97234.14
2019-03-05T15:25:39.152Z,97222.27
2019-03-05T15:28:09.689Z,97220.22
2019-03-05T15:30:40.356Z,97226.42
2019-03-05T15:33:11.051Z,97226.56
2019-03-05T15:35:42.427Z,97226.56
2019-03-05T15:38:13.236Z,97228.95
2019-03-05T15:40:43.832Z,97234.45
2019-03-05T15:43:14.716Z,97235.05
2019-03-05T15:45:45.291Z,97250.06
2019-03-05T15:48:15.867Z,97257.28
2019-03-05T15:50:46.347Z,97265.52
2019-03-05T15:53:17.106Z,97265.30
2019-03-05T15:55:47.416Z,97265.60
2019-03-05T15:58:17.874Z,97253.24
2019-03-05T16:00:48.391Z,97277.88
2019-03-05T16:03:18.859Z,97260.05
2019-03-05T16:05:49.331Z,97275.16
2019-03-05T16:08:20.906Z,97263.05
2019-03-05T16:10:54.657Z,97254.67
2019-03-05T16:13:24.567Z,97260.31
2019-03-05T16:15:55.100Z,97266.56
2019-03-05T16:18:25.447Z,97269.25
2019-03-05T16:20:58.251Z,97263.00
2019-03-05T16:23:28.597Z,97271.00
2019-03-05T16:25:59.731Z,97268.61
2019-03-05T16:28:30.457Z,97270.44
2019-03-05T16:31:17.325Z,97270.44
2019-03-05T16:34:05.434Z,97283.02
2019-03-05T16:36:51.441Z,97277.69
2019-03-05T16:39:36.746Z,97280.71
2019-03-05T16:42:46.378Z,97289.73
2019-03-05T16:45:34.267Z,97284.42
2019-03-05T16:48:20.869Z,97293.44
2019-03-05T16:51:22.623Z,97287.56
2019-03-05T16:54:12.141Z,97287.16
2019-03-05T16:56:52.673Z,97296.68
2019-03-05T16:59:53.248Z,97303.45
2019-03-05T17:02:59.296Z,97293.27
2019-03-05T17:05:43.191Z,97301.39
2019-03-05T17:08:35.790Z,97305.20
2019-03-05T17:11:23.929Z,97312.20
2019-03-05T17:13:56.106Z,97316.53
2019-03-05T17:16:27.902Z,97319.52
2019-03-05T17:18:59.587Z,97325.73
2019-03-05T17:21:30.110Z,97319.00
2019-03-05T17:24:01.789Z,97315.48
2019-03-05T17:26:32.864Z,97318.21
2019-03-05T17:29:03.675Z,97324.45
2019-03-05T17:31:36.001Z,97322.55
2019-03-05T17:34:06.525Z,97312.53
2019-03-05T17:36:37.307Z,97317.39
2019-03-05T17:39:11.866Z,97310.92
2019-03-05T17:41:43.336Z,97314.13
2019-03-05T17:44:14.029Z,97318.41
2019-03-05T17:46:45.461Z,97312.61
2019-03-05T17:49:16.016Z,97310.73
2019-03-05T17:51:46.562Z,97322.48
2019-03-05T17:54:17.449Z,97317.36
2019-03-05T17:56:47.950Z,97311.94
2019-03-05T17:59:18.608Z,97317.02
2019-03-05T18:01:49.133Z,97316.20
2019-03-05T18:04:19.743Z,97312.95
2019-03-05T18:06:50.232Z,97318.29
2019-03-05T18:09:21.358Z,97324.98
2019-03-05T18:11:51.846Z,97334.63
2019-03-05T18:14:22.537Z,97320.04
2019-03-05T18:16:53.064Z,97330.84
2019-03-05T18:19:23.742Z,97330.10
2019-03-05T18:21:54.259Z,97334.44
2019-03-05T18:24:24.798Z,97337.66
2019-03-05T18:26:55.328Z,97342.30
2019-03-05T18:29:25.883Z,97353.88
2019-03-05T18:31:56.383Z,97359.83
2019-03-05T18:34:26.936Z,97364.84
2019-03-05T18:36:57.418Z,97340.98
2019-03-05T18:39:27.867Z,97365.97
2019-03-05T18:41:59.265Z,97393.63
2019-03-05T18:44:29.965Z,97380.50
2019-03-05T18:47:00.987Z,97445.60
2019-03-05T18:49:31.387Z,97453.84
2019-03-05T18:52:01.872Z,97434.10
2019-03-05T18:54:32.790Z,97458.87
2019-03-05T18:57:03.238Z,97440.52
2019-03-05T18:59:33.760Z,97443.80
2019-03-05T19:02:04.721Z,97466.06
2019-03-05T19:04:35.309Z,97458.80
2019-03-05T19:07:05.703Z,97462.08
2019-03-05T19:09:36.173Z,97460.02
2019-03-05T19:12:06.940Z,97466.03
2019-03-05T19:14:37.436Z,97476.99
2019-03-05T19:17:07.908Z,97482.41
2019-03-05T19:19:38.447Z,97483.75
2019-03-05T19:22:08.980Z,97489.12
2019-03-05T19:24:39.503Z,97472.59
2019-03-05T19:27:10.054Z,97469.60
2019-03-05T19:29:40.462Z,97480.27
2019-03-05T19:32:10.891Z,97498.06
2019-03-05T19:34:42.538Z,97499.20
2019-03-05T19:37:13.989Z,97511.92
2019-03-05T19:39:44.491Z,97491.22
2019-03-05T19:42:15.006Z,97515.73
2019-03-05T19:44:45.461Z,97557.12
2019-03-05T19:47:15.890Z,97584.33
2019-03-05T19:49:46.298Z,97513.73
2019-03-05T19:52:16.825Z,97511.66
2019-03-05T19:54:47.255Z,97514.39
2019-03-05T19:57:17.650Z,97545.75
2019-03-05T19:59:48.245Z,97554.33
2019-03-05T20:02:18.855Z,97549.92
2019-03-05T20:04:49.313Z,97550.48
2019-03-05T20:07:19.934Z,97547.64
2019-03-05T20:09:50.443Z,97561.42
2019-03-05T20:12:20.887Z,97583.53
2019-03-05T20:14:51.374Z,97566.08
2019-03-05T20:17:21.768Z,97563.83
2019-03-05T20:19:52.144Z,97552.98
2019-03-05T20:22:22.568Z,97551.88
2019-03-05T20:24:53.073Z,97551.37
2019-03-05T20:27:23.533Z,97533.75
2019-03-05T20:29:54.168Z,97539.89
2019-03-05T20:32:24.915Z,97538.05
2019-03-05T20:34:55.644Z,97546.41
2019-03-05T20:37:27.528Z,97545.08
2019-03-05T20:39:58.081Z,97549.80
2019-03-05T20:42:28.498Z,97563.32
2019-03-05T20:44:59.025Z,97561.90
2019-03-05T20:47:29.429Z,97558.48
2019-03-05T20:49:59.886Z,97553.05
2019-03-05T20:52:30.469Z,97556.91
2019-03-05T20:55:01.200Z,97567.70
2019-03-05T20:57:33.201Z,97577.70
2019-03-05T21:00:03.814Z,97576.76
2019-03-05T21:02:34.992Z,97593.23
2019-03-05T21:05:05.655Z,97583.47
2019-03-05T21:07:36.271Z,97575.53
2019-03-05T21:10:07.570Z,97585.32
2019-03-05T21:12:38.181Z,97587.25
2019-03-05T21:15:09.386Z,97592.23
2019-03-05T21:17:40.064Z,97592.41
2019-03-05T21:20:11.656Z,97594.66
2019-03-05T21:22:42.703Z,97611.00
2019-03-05T21:25:13.509Z,97614.30
2019-03-05T21:27:44.096Z,97619.31
2019-03-05T21:30:19.242Z,97619.66
2019-03-05T21:32:50.127Z,97624.60
2019-03-05T21:35:21.432Z,97629.62
2019-03-05T21:37:51.921Z,97634.46
2019-03-05T21:40:23.661Z,97633.81
2019-03-05T21:42:54.168Z,97638.56
2019-03-05T21:45:27.653Z,97640.09
2019-03-05T21:47:58.078Z,97654.81
2019-03-05T21:50:28.615Z,97650.69
2019-03-05T21:52:59.022Z,97651.80
2019-03-05T21:55:29.391Z,97665.83
2019-03-05T21:57:59.800Z,97656.36
2019-03-05T22:00:31.193Z,97663.38
2019-03-05T22:03:01.747Z,97663.27
2019-03-05T22:05:32.246Z,97668.84
2019-03-05T22:08:02.683Z,97669.49
2019-03-05T22:10:33.240Z,97672.96
2019-03-05T22:13:03.587Z,97673.19
2019-03-05T22:15:34.144Z,97673.09
2019-03-05T22:18:04.606Z,97673.09
2019-03-05T22:20:35.705Z,97677.85
2019-03-05T22:23:07.447Z,97678.05
2019-03-05T22:25:38.002Z,97680.30
2019-03-05T22:28:08.456Z,97693.36
2019-03-05T22:30:39.673Z,97692.34
2019-03-05T22:33:10.698Z,97690.17
2019-03-05T22:35:41.580Z,97691.83
2019-03-05T22:38:12.018Z,97695.44
2019-03-05T22:40:43.020Z,97708.91
2019-03-05T22:43:13.508Z,97701.39
2019-03-05T22:45:44.097Z,97710.47
2019-03-05T22:48:14.575Z,97716.23
2019-03-05T22:50:45.052Z,97716.52
2019-03-05T22:53:15.757Z,97721.77
2019-03-05T22:55:46.288Z,97717.76
2019-03-05T22:58:16.812Z,97719.28
2019-03-05T23:01:10.867Z,97722.26
2019-03-05T23:04:03.233Z,97725.62
2019-03-05T23:06:34.069Z,97740.84
2019-03-05T23:09:08.254Z,97734.16
2019-03-05T23:11:41.924Z,97740.62
2019-03-05T23:14:12.367Z,97740.42
2019-03-05T23:16:43.948Z,97735.06
2019-03-05T23:19:17.436Z,97752.98
2019-03-05T23:21:47.959Z,97751.22
2019-03-05T23:24:18.505Z,97749.79
2019-03-05T23:26:49.400Z,97754.73
2019-03-05T23:29:26.230Z,97757.49
2019-03-05T23:31:57.794Z,97759.14
2019-03-05T23:34:30.590Z,97769.31
2019-03-05T23:37:01.921Z,97772.62
2019-03-05T23:39:32.401Z,97768.89
2019-03-05T23:42:03.653Z,97781.03
2019-03-05T23:44:34.244Z,97779.69
2019-03-05T23:47:05.690Z,97784.53
2019-03-05T23:49:36.195Z,97782.35
2019-03-05T23:52:06.939Z,97776.38
2019-03-05T23:54:37.785Z,97803.36
2019-03-05T23:57:09.277Z,97806.55
2019-03-05T23:59:41.513Z,97794.39
